createdAt,value
2018-10-03T00:01:37.510Z,3.63
2018-10-03T00:04:05.733Z,2.60
2018-10-03T00:06:33.920Z,3.30
2018-10-03T00:09:02.108Z,2.37
2018-10-03T00:11:30.291Z,3.40
2018-10-03T00:13:58.471Z,3.30
2018-10-03T00:16:26.642Z,2.90
2018-10-03T00:18:54.810Z,2.60
2018-10-03T00:21:22.978Z,2.70
2018-10-03T00:23:51.154Z,2.63
2018-10-03T00:26:19.314Z,3.67
2018-10-03T00:28:47.490Z,2.53
2018-10-03T00:31:15.654Z,2.63
2018-10-03T00:33:43.846Z,2.77
2018-10-03T00:36:12.034Z,2.97
2018-10-03T00:38:40.198Z,2.90
2018-10-03T00:41:08.647Z,2.80
2018-10-03T00:43:37.240Z,4.13
2018-10-03T00:46:05.478Z,2.87
2018-10-03T00:48:33.657Z,3.03
2018-10-03T00:51:01.852Z,2.87
2018-10-03T00:53:30.011Z,2.83
2018-10-03T00:55:58.183Z,4.17
2018-10-03T00:58:26.667Z,3.40
2018-10-03T01:00:54.842Z,2.27
2018-10-03T01:03:23.011Z,3.37
2018-10-03T01:05:51.226Z,2.80
2018-10-03T01:08:19.390Z,3.47
2018-10-03T01:10:47.583Z,3.10
2018-10-03T01:13:15.771Z,3.27
2018-10-03T01:15:43.955Z,2.60
2018-10-03T01:18:12.139Z,3.17
2018-10-03T01:20:40.326Z,3.23
2018-10-03T01:23:08.544Z,2.43
2018-10-03T01:25:36.980Z,3.20
2018-10-03T01:28:05.360Z,2.67
2018-10-03T01:30:33.558Z,3.53
2018-10-03T01:33:01.747Z,3.53
2018-10-03T01:35:29.935Z,3.17
2018-10-03T01:37:58.140Z,2.80
2018-10-03T01:40:26.331Z,3.23
2018-10-03T01:42:54.518Z,3.37
2018-10-03T01:45:22.705Z,3.33
2018-10-03T01:47:51.067Z,3.80
2018-10-03T01:50:19.243Z,3.43
2018-10-03T01:52:47.436Z,2.67
2018-10-03T01:55:15.619Z,3.00
2018-10-03T01:57:43.806Z,3.90
2018-10-03T02:00:12.013Z,3.50
2018-10-03T02:02:40.235Z,3.27
2018-10-03T02:05:08.446Z,3.80
2018-10-03T02:07:36.635Z,3.27
2018-10-03T02:10:04.819Z,3.77
2018-10-03T02:12:33.015Z,3.07
2018-10-03T02:15:01.204Z,3.57
2018-10-03T02:17:29.391Z,4.30
2018-10-03T02:19:57.566Z,3.40
2018-10-03T02:22:25.779Z,3.70
2018-10-03T02:24:53.963Z,3.40
2018-10-03T02:27:22.195Z,2.90
2018-10-03T02:29:50.370Z,3.40
2018-10-03T02:32:18.588Z,2.90
2018-10-03T02:34:46.817Z,3.57
2018-10-03T02:37:15.019Z,3.53
2018-10-03T02:39:43.225Z,3.53
2018-10-03T02:42:11.407Z,3.97
2018-10-03T02:44:39.599Z,3.10
2018-10-03T02:47:07.775Z,3.07
2018-10-03T02:49:35.973Z,3.90
2018-10-03T02:52:04.150Z,2.83
2018-10-03T02:54:32.339Z,2.90
2018-10-03T02:57:00.522Z,3.50
2018-10-03T02:59:28.712Z,4.03
2018-10-03T03:01:56.923Z,4.00
2018-10-03T03:04:25.107Z,3.73
2018-10-03T03:06:53.335Z,3.23
2018-10-03T03:09:21.569Z,4.07
2018-10-03T03:11:49.765Z,3.23
2018-10-03T03:14:17.974Z,3.60
2018-10-03T03:16:46.156Z,3.57
2018-10-03T03:19:14.346Z,3.20
2018-10-03T03:21:42.525Z,3.00
2018-10-03T03:24:10.710Z,3.30
2018-10-03T03:26:38.911Z,2.93
2018-10-03T03:29:07.088Z,3.00
2018-10-03T03:31:35.279Z,3.40
2018-10-03T03:34:03.467Z,4.30
2018-10-03T03:36:31.658Z,3.47
2018-10-03T03:38:59.831Z,3.93
2018-10-03T03:41:28.052Z,4.13
2018-10-03T03:43:56.253Z,4.30
2018-10-03T03:46:24.463Z,3.63
2018-10-03T03:48:52.660Z,3.50
2018-10-03T03:51:20.846Z,4.17
2018-10-03T03:53:49.022Z,3.03
2018-10-03T03:56:17.210Z,2.97
2018-10-03T03:58:45.391Z,4.53
2018-10-03T04:01:13.579Z,4.13
2018-10-03T04:03:41.755Z,3.40
2018-10-03T04:06:09.967Z,3.43
2018-10-03T04:08:38.131Z,3.70
2018-10-03T04:11:06.306Z,3.80
2018-10-03T04:13:34.471Z,3.37
2018-10-03T04:16:02.647Z,2.63
2018-10-03T04:18:30.840Z,3.37
2018-10-03T04:20:59.044Z,3.23
2018-10-03T04:23:27.218Z,3.40
2018-10-03T04:25:55.383Z,3.27
2018-10-03T04:28:23.563Z,2.87
2018-10-03T04:30:51.739Z,3.70
2018-10-03T04:33:19.911Z,3.60
2018-10-03T04:35:48.155Z,3.47
2018-10-03T04:38:16.263Z,3.47
2018-10-03T04:40:44.422Z,4.57
2018-10-03T04:43:12.618Z,4.63
2018-10-03T04:45:40.787Z,3.43
2018-10-03T04:48:08.979Z,4.67
2018-10-03T04:50:37.147Z,3.50
2018-10-03T04:53:05.740Z,3.70
2018-10-03T04:55:33.975Z,3.50
2018-10-03T04:58:02.192Z,3.57
2018-10-03T05:00:30.391Z,3.13
2018-10-03T05:02:58.558Z,4.50
2018-10-03T05:05:26.745Z,3.30
2018-10-03T05:07:54.927Z,3.10
2018-10-03T05:10:23.111Z,4.00
2018-10-03T05:12:51.346Z,3.83
2018-10-03T05:15:19.758Z,3.87
2018-10-03T05:17:47.947Z,4.30
2018-10-03T05:20:16.123Z,3.87
2018-10-03T05:22:44.311Z,2.97
2018-10-03T05:25:12.498Z,3.63
2018-10-03T05:27:40.807Z,3.60
2018-10-03T05:30:09.016Z,2.83
2018-10-03T05:32:37.248Z,2.83
2018-10-03T05:35:05.808Z,3.53
2018-10-03T05:37:34.200Z,2.97
2018-10-03T05:40:02.403Z,3.50
2018-10-03T05:42:30.988Z,3.10
2018-10-03T05:44:59.176Z,2.63
2018-10-03T05:47:27.500Z,2.57
2018-10-03T05:49:55.692Z,2.37
2018-10-03T05:52:24.192Z,2.70
2018-10-03T05:54:52.443Z,3.00
2018-10-03T05:57:20.570Z,3.20
2018-10-03T05:59:48.755Z,2.40
2018-10-03T06:02:16.939Z,2.80
2018-10-03T06:04:45.175Z,1.93
2018-10-03T06:07:13.413Z,3.40
2018-10-03T06:09:41.608Z,2.10
2018-10-03T06:12:09.788Z,2.73
2018-10-03T06:14:37.965Z,2.87
2018-10-03T06:17:06.131Z,2.20
2018-10-03T06:19:34.303Z,2.47
2018-10-03T06:22:02.496Z,1.97
2018-10-03T06:24:30.671Z,2.10
2018-10-03T06:26:58.851Z,3.43
2018-10-03T06:29:27.047Z,2.80
2018-10-03T06:31:55.239Z,2.23
2018-10-03T06:34:23.451Z,2.60
2018-10-03T06:36:51.612Z,2.20
2018-10-03T06:39:19.834Z,1.73
2018-10-03T06:41:47.975Z,2.20
2018-10-03T06:44:16.184Z,2.00
2018-10-03T06:46:44.593Z,1.93
2018-10-03T06:49:12.862Z,1.90
2018-10-03T06:51:41.064Z,2.20
2018-10-03T06:54:09.231Z,1.80
2018-10-03T06:56:37.419Z,1.93
2018-10-03T06:59:05.740Z,1.90
2018-10-03T07:01:33.950Z,1.70
2018-10-03T07:04:02.127Z,2.10
2018-10-03T07:06:30.327Z,2.00
2018-10-03T07:08:58.510Z,1.50
2018-10-03T07:11:26.728Z,2.43
2018-10-03T07:13:54.907Z,1.93
2018-10-03T07:16:23.123Z,1.60
2018-10-03T07:18:51.304Z,1.73
2018-10-03T07:21:19.491Z,2.10
2018-10-03T07:23:47.684Z,1.70
2018-10-03T07:26:15.943Z,2.43
2018-10-03T07:28:44.157Z,2.07
2018-10-03T07:31:12.369Z,1.40
2018-10-03T07:33:40.599Z,1.40
2018-10-03T07:36:08.903Z,1.83
2018-10-03T07:38:37.231Z,2.10
2018-10-03T07:41:05.695Z,2.07
2018-10-03T07:43:33.887Z,3.10
2018-10-03T07:46:02.083Z,1.93
2018-10-03T07:48:30.306Z,1.73
2018-10-03T07:50:58.503Z,2.00
2018-10-03T07:53:26.973Z,2.10
2018-10-03T07:55:55.224Z,2.33
2018-10-03T07:58:23.431Z,2.43
2018-10-03T08:00:51.691Z,1.87
2018-10-03T08:03:19.874Z,2.60
2018-10-03T08:05:48.239Z,2.43
2018-10-03T08:08:16.447Z,2.27
2018-10-03T08:10:44.690Z,2.20
2018-10-03T08:13:12.923Z,1.77
2018-10-03T08:15:41.161Z,2.17
2018-10-03T08:18:09.397Z,2.40
2018-10-03T08:20:37.606Z,1.83
2018-10-03T08:23:05.991Z,1.53
2018-10-03T08:25:34.159Z,2.40
2018-10-03T08:28:02.327Z,2.00
2018-10-03T08:30:30.523Z,2.10
2018-10-03T08:32:58.806Z,1.70
2018-10-03T08:35:27.166Z,2.60
2018-10-03T08:37:55.338Z,2.40
2018-10-03T08:40:23.508Z,2.43
2018-10-03T08:42:51.743Z,3.13
2018-10-03T08:45:20.214Z,2.33
2018-10-03T08:47:48.347Z,1.73
2018-10-03T08:50:16.543Z,1.80
2018-10-03T08:52:44.735Z,1.77
2018-10-03T08:55:12.920Z,1.80
2018-10-03T08:57:41.627Z,1.93
2018-10-03T09:00:10.228Z,5.00
2018-10-03T09:02:38.399Z,2.60
2018-10-03T09:05:06.674Z,1.50
2018-10-03T09:07:34.852Z,2.80
2018-10-03T09:10:03.047Z,2.27
2018-10-03T09:12:31.339Z,2.13
2018-10-03T09:14:59.783Z,1.50
2018-10-03T09:17:27.995Z,1.33
2018-10-03T09:19:56.175Z,1.07
2018-10-03T09:22:24.371Z,2.20
2018-10-03T09:24:52.552Z,1.60
2018-10-03T09:27:20.747Z,1.80
2018-10-03T09:29:48.967Z,1.17
2018-10-03T09:32:17.164Z,2.00
2018-10-03T09:34:45.347Z,1.43
2018-10-03T09:37:13.547Z,3.07
2018-10-03T09:39:41.863Z,2.30
2018-10-03T09:42:10.000Z,3.87
2018-10-03T09:44:38.254Z,1.53
2018-10-03T09:47:06.382Z,1.13
2018-10-03T09:49:34.564Z,1.90
2018-10-03T09:52:02.755Z,1.67
2018-10-03T09:54:30.960Z,1.97
2018-10-03T09:56:59.170Z,1.73
2018-10-03T09:59:27.363Z,2.13
2018-10-03T10:01:56.125Z,1.80
2018-10-03T10:04:24.315Z,2.87
2018-10-03T10:06:52.518Z,2.10
2018-10-03T10:09:20.690Z,2.87
2018-10-03T10:11:48.895Z,2.80
2018-10-03T10:14:17.070Z,2.80
2018-10-03T10:16:45.288Z,2.63
2018-10-03T10:19:13.473Z,2.83
2018-10-03T10:21:41.654Z,2.13
2018-10-03T10:24:09.835Z,3.03
2018-10-03T10:26:38.023Z,2.40
2018-10-03T10:29:06.215Z,4.00
2018-10-03T10:31:34.391Z,2.93
2018-10-03T10:34:02.588Z,2.40
2018-10-03T10:36:30.923Z,2.10
2018-10-03T10:38:59.124Z,2.50
2018-10-03T10:41:27.395Z,3.73
2018-10-03T10:43:55.551Z,2.93
2018-10-03T10:46:23.939Z,1.90
2018-10-03T10:48:52.138Z,2.77
2018-10-03T10:51:20.402Z,2.13
2018-10-03T10:53:48.599Z,2.13
2018-10-03T10:56:16.775Z,1.90
2018-10-03T10:58:45.340Z,1.90
2018-10-03T11:01:13.557Z,2.50
2018-10-03T11:03:41.751Z,1.93
2018-10-03T11:06:09.954Z,1.70
2018-10-03T11:08:38.215Z,2.50
2018-10-03T11:11:06.423Z,2.13
2018-10-03T11:13:34.587Z,1.90
2018-10-03T11:16:02.751Z,1.90
2018-10-03T11:18:30.923Z,2.10
2018-10-03T11:20:59.098Z,1.87
2018-10-03T11:23:27.274Z,1.83
2018-10-03T11:25:55.477Z,2.00
2018-10-03T11:28:23.651Z,2.07
2018-10-03T11:30:52.890Z,1.73
2018-10-03T11:33:21.054Z,2.00
2018-10-03T11:35:49.235Z,1.57
2018-10-03T11:38:17.447Z,2.23
2018-10-03T11:40:46.433Z,2.20
2018-10-03T11:43:14.766Z,1.70
2018-10-03T11:45:42.971Z,2.33
2018-10-03T11:48:11.171Z,2.40
2018-10-03T11:50:39.416Z,2.70
2018-10-03T11:53:07.526Z,2.50
2018-10-03T11:55:35.695Z,2.50
2018-10-03T11:58:03.883Z,3.10
2018-10-03T12:00:32.056Z,1.83
2018-10-03T12:03:00.458Z,1.87
2018-10-03T12:05:28.408Z,2.20
2018-10-03T12:07:56.584Z,2.50
2018-10-03T12:10:24.751Z,2.27
2018-10-03T12:12:52.927Z,2.60
2018-10-03T12:15:21.090Z,3.33
2018-10-03T12:17:49.271Z,2.80
2018-10-03T12:20:17.477Z,1.90
2018-10-03T12:22:45.692Z,2.87
2018-10-03T12:25:14.012Z,2.47
2018-10-03T12:27:42.155Z,2.90
2018-10-03T12:30:10.406Z,2.67
2018-10-03T12:32:38.574Z,2.63
2018-10-03T12:35:06.734Z,3.37
2018-10-03T12:37:34.906Z,2.93
2018-10-03T12:40:03.231Z,2.40
2018-10-03T12:42:31.398Z,3.40
2018-10-03T12:44:59.567Z,2.90
2018-10-03T12:47:27.726Z,2.70
2018-10-03T12:49:55.896Z,2.60
2018-10-03T12:52:24.083Z,2.53
2018-10-03T12:54:52.289Z,2.83
2018-10-03T12:57:20.402Z,3.07
2018-10-03T12:59:48.591Z,2.57
2018-10-03T13:02:16.768Z,1.90
2018-10-03T13:04:44.969Z,3.43
2018-10-03T13:07:13.179Z,1.83
2018-10-03T13:09:41.359Z,2.47
2018-10-03T13:12:09.539Z,2.50
2018-10-03T13:14:37.707Z,2.80
2018-10-03T13:17:06.267Z,1.67
2018-10-03T13:19:34.429Z,2.33
2018-10-03T13:22:02.616Z,2.00
2018-10-03T13:24:30.889Z,2.00
2018-10-03T13:26:58.938Z,1.77
2018-10-03T13:29:27.099Z,2.00
2018-10-03T13:31:55.368Z,0.90
2018-10-03T13:34:23.535Z,1.97
2018-10-03T13:36:51.694Z,2.37
2018-10-03T13:39:19.886Z,1.73
2018-10-03T13:41:48.063Z,1.13
2018-10-03T13:44:16.260Z,1.83
2018-10-03T13:46:44.499Z,2.37
2018-10-03T13:49:12.634Z,3.17
2018-10-03T13:51:40.808Z,1.97
2018-10-03T13:54:08.991Z,2.40
2018-10-03T13:56:37.154Z,1.80
2018-10-03T13:59:05.335Z,2.27
2018-10-03T14:01:33.499Z,2.30
2018-10-03T14:04:01.656Z,2.53
2018-10-03T14:06:29.846Z,2.27
2018-10-03T14:08:58.027Z,3.60
2018-10-03T14:11:26.207Z,3.10
2018-10-03T14:13:54.461Z,3.13
2018-10-03T14:16:22.651Z,2.93
2018-10-03T14:18:50.832Z,3.03
2018-10-03T14:21:19.023Z,7.97
2018-10-03T14:23:47.241Z,6.70
2018-10-03T14:26:15.448Z,4.53
2018-10-03T14:28:43.656Z,2.37
2018-10-03T14:31:11.942Z,3.03
2018-10-03T14:33:40.112Z,2.23
2018-10-03T14:36:08.314Z,3.03
2018-10-03T14:38:36.737Z,2.60
2018-10-03T14:41:04.923Z,3.23
2018-10-03T14:43:33.307Z,2.07
2018-10-03T14:46:01.488Z,1.90
2018-10-03T14:48:29.662Z,2.03
2018-10-03T14:50:57.854Z,3.27
2018-10-03T14:53:26.333Z,1.93
2018-10-03T14:55:54.519Z,2.50
2018-10-03T14:58:22.719Z,2.17
2018-10-03T15:00:51.192Z,2.37
2018-10-03T15:03:19.433Z,2.07
2018-10-03T15:05:47.610Z,2.20
2018-10-03T15:08:15.787Z,3.23
2018-10-03T15:10:43.954Z,2.30
2018-10-03T15:13:12.122Z,2.70
2018-10-03T15:15:40.279Z,1.83
2018-10-03T15:18:08.655Z,2.63
2018-10-03T15:20:36.782Z,2.90
2018-10-03T15:23:04.950Z,2.97
2018-10-03T15:25:33.107Z,2.20
2018-10-03T15:28:01.275Z,3.07
2018-10-03T15:30:29.470Z,2.27
2018-10-03T15:32:57.639Z,2.50
2018-10-03T15:35:25.852Z,2.07
2018-10-03T15:37:53.980Z,2.43
2018-10-03T15:40:22.172Z,1.60
2018-10-03T15:42:50.373Z,2.63
2018-10-03T15:45:18.727Z,2.00
2018-10-03T15:47:46.899Z,2.40
2018-10-03T15:50:15.527Z,3.00
2018-10-03T15:52:43.691Z,2.67
2018-10-03T15:55:11.867Z,2.13
2018-10-03T15:57:40.047Z,2.87
2018-10-03T16:00:08.446Z,2.20
2018-10-03T16:02:36.872Z,2.70
2018-10-03T16:05:05.055Z,1.90
2018-10-03T16:07:33.242Z,2.80
2018-10-03T16:10:01.423Z,3.00
2018-10-03T16:12:29.628Z,2.67
2018-10-03T16:14:57.836Z,2.10
2018-10-03T16:17:26.028Z,2.53
2018-10-03T16:19:54.229Z,3.47
2018-10-03T16:22:22.376Z,3.30
2018-10-03T16:24:50.554Z,2.63
2018-10-03T16:27:18.722Z,2.43
2018-10-03T16:29:46.904Z,2.80
2018-10-03T16:32:15.129Z,3.27
2018-10-03T16:34:43.419Z,2.80
2018-10-03T16:37:11.646Z,3.53
2018-10-03T16:39:39.835Z,2.80
2018-10-03T16:42:08.006Z,9.27
2018-10-03T16:44:36.203Z,3.30
2018-10-03T16:47:04.399Z,3.00
2018-10-03T16:49:32.658Z,2.57
2018-10-03T16:52:01.069Z,3.40
2018-10-03T16:54:29.358Z,3.57
2018-10-03T16:56:57.658Z,3.10
2018-10-03T16:59:26.512Z,3.03
2018-10-03T17:01:54.687Z,2.40
2018-10-03T17:04:22.910Z,2.97
2018-10-03T17:06:51.200Z,2.83
2018-10-03T17:09:19.483Z,3.73
2018-10-03T17:11:48.086Z,3.93
2018-10-03T17:14:31.046Z,5.10
2018-10-03T17:16:59.226Z,3.80
2018-10-03T17:19:27.428Z,5.20
2018-10-03T17:21:56.280Z,4.43
2018-10-03T17:24:25.712Z,4.53
2018-10-03T17:26:53.898Z,6.30
2018-10-03T17:29:22.070Z,6.17
2018-10-03T17:31:50.260Z,6.17
2018-10-03T17:34:18.927Z,7.07
2018-10-03T17:36:48.422Z,7.57
2018-10-03T17:39:17.208Z,6.50
2018-10-03T17:41:45.859Z,6.33
2018-10-03T17:44:15.051Z,6.10
2018-10-03T17:46:43.323Z,7.43
2018-10-03T17:49:11.503Z,8.07
2018-10-03T17:51:39.858Z,7.77
2018-10-03T17:54:08.153Z,7.00
2018-10-03T17:56:36.431Z,6.30
2018-10-03T17:59:04.851Z,6.83
2018-10-03T18:01:34.343Z,6.70
2018-10-03T18:04:02.523Z,6.93
2018-10-03T18:06:30.715Z,6.00
2018-10-03T18:08:58.969Z,6.63
2018-10-03T18:11:27.182Z,7.80
2018-10-03T18:13:55.391Z,6.93
2018-10-03T18:16:23.539Z,8.00
2018-10-03T18:18:51.796Z,7.20
2018-10-03T18:21:19.935Z,5.90
2018-10-03T18:23:48.172Z,6.63
2018-10-03T18:26:16.396Z,5.70
2018-10-03T18:28:44.640Z,7.57
2018-10-03T18:31:12.932Z,7.87
2018-10-03T18:33:41.120Z,9.73
2018-10-03T18:36:09.320Z,8.30
2018-10-03T18:38:37.503Z,8.43
2018-10-03T18:41:05.895Z,8.33
2018-10-03T18:43:34.243Z,8.97
2018-10-03T18:46:02.574Z,8.60
2018-10-03T18:48:30.858Z,8.50
2018-10-03T18:50:59.266Z,8.20
2018-10-03T18:53:27.459Z,9.90
2018-10-03T18:55:55.646Z,8.60
2018-10-03T18:58:23.902Z,8.10
2018-10-03T19:00:52.202Z,7.67
2018-10-03T19:03:20.470Z,7.17
2018-10-03T19:05:48.741Z,6.50
2018-10-03T19:08:16.871Z,6.87
2018-10-03T19:10:45.080Z,6.90
2018-10-03T19:13:13.239Z,7.60
2018-10-03T19:15:41.410Z,6.60
2018-10-03T19:18:09.618Z,7.60
2018-10-03T19:20:37.819Z,7.63
2018-10-03T19:23:06.255Z,7.07
2018-10-03T19:25:34.423Z,7.93
2018-10-03T19:28:02.629Z,8.10
2018-10-03T19:30:30.833Z,8.47
2018-10-03T19:32:59.031Z,7.97
2018-10-03T19:35:27.343Z,7.93
2018-10-03T19:37:56.223Z,8.83
2018-10-03T19:40:24.463Z,9.37
2018-10-03T19:42:52.760Z,9.60
2018-10-03T19:45:20.999Z,8.60
2018-10-03T19:47:49.337Z,11.77
2018-10-03T19:50:17.651Z,15.63
2018-10-03T19:52:45.847Z,12.30
2018-10-03T19:55:14.030Z,12.10
2018-10-03T19:57:42.208Z,11.23
2018-10-03T20:00:10.441Z,8.73
2018-10-03T20:02:38.737Z,9.37
2018-10-03T20:05:07.108Z,9.30
2018-10-03T20:07:35.298Z,8.67
2018-10-03T20:10:03.707Z,8.27
2018-10-03T20:12:31.902Z,10.87
2018-10-03T20:15:00.092Z,11.33
2018-10-03T20:17:28.337Z,11.00
2018-10-03T20:19:56.651Z,12.50
2018-10-03T20:22:24.976Z,10.23
2018-10-03T20:24:53.289Z,9.90
2018-10-03T20:27:21.484Z,10.10
2018-10-03T20:29:49.703Z,9.77
2018-10-03T20:32:18.111Z,10.90
2018-10-03T20:34:46.443Z,11.07
2018-10-03T20:37:14.641Z,9.00
2018-10-03T20:39:42.849Z,11.00
2018-10-03T20:42:11.040Z,9.43
2018-10-03T20:44:39.226Z,9.80
2018-10-03T20:47:07.423Z,9.87
2018-10-03T20:49:35.641Z,10.63
2018-10-03T20:52:03.852Z,17.53
2018-10-03T20:54:32.051Z,12.43
2018-10-03T20:57:00.250Z,11.77
2018-10-03T20:59:28.448Z,14.13
2018-10-03T21:01:56.643Z,13.60
2018-10-03T21:04:25.116Z,15.73
2018-10-03T21:06:53.336Z,14.73
2018-10-03T21:09:21.575Z,15.30
2018-10-03T21:11:49.754Z,12.03
2018-10-03T21:14:18.016Z,9.53
2018-10-03T21:16:46.203Z,9.90
2018-10-03T21:19:14.418Z,8.03
2018-10-03T21:21:42.603Z,10.43
2018-10-03T21:24:10.786Z,6.70
2018-10-03T21:26:39.018Z,8.27
2018-10-03T21:29:07.191Z,9.00
2018-10-03T21:31:36.150Z,7.57
2018-10-03T21:34:04.514Z,8.07
2018-10-03T21:36:32.703Z,7.37
2018-10-03T21:39:00.896Z,8.53
2018-10-03T21:41:29.107Z,7.57
2018-10-03T21:43:57.350Z,9.20
2018-10-03T21:46:25.565Z,7.90
2018-10-03T21:48:53.762Z,7.77
2018-10-03T21:51:21.951Z,7.67
2018-10-03T21:53:50.131Z,6.87
2018-10-03T21:56:18.355Z,6.87
2018-10-03T21:58:46.631Z,6.90
2018-10-03T22:01:14.827Z,7.10
2018-10-03T22:03:43.010Z,6.40
2018-10-03T22:06:11.199Z,6.47
2018-10-03T22:08:39.395Z,6.23
2018-10-03T22:11:07.599Z,6.70
2018-10-03T22:13:35.841Z,6.40
2018-10-03T22:16:04.042Z,5.83
2018-10-03T22:18:32.249Z,6.37
2018-10-03T22:21:00.472Z,5.53
2018-10-03T22:23:28.671Z,5.97
2018-10-03T22:25:57.312Z,5.87
2018-10-03T22:28:25.495Z,7.97
2018-10-03T22:30:53.686Z,6.77
2018-10-03T22:33:21.895Z,6.83
2018-10-03T22:35:50.119Z,6.20
2018-10-03T22:38:18.304Z,5.67
2018-10-03T22:40:46.503Z,6.17
2018-10-03T22:43:14.687Z,5.57
2018-10-03T22:45:42.883Z,6.33
2018-10-03T22:48:11.695Z,7.07
2018-10-03T22:50:39.883Z,6.50
2018-10-03T22:53:08.259Z,6.37
2018-10-03T22:55:36.489Z,6.53
2018-10-03T22:58:04.719Z,7.47
2018-10-03T23:00:32.994Z,6.93
2018-10-03T23:03:01.179Z,7.17
2018-10-03T23:05:29.364Z,6.57
2018-10-03T23:07:57.543Z,6.97
2018-10-03T23:10:25.728Z,5.67
2018-10-03T23:12:53.914Z,5.53
2018-10-03T23:15:22.098Z,6.17
2018-10-03T23:17:50.283Z,8.10
2018-10-03T23:20:18.458Z,5.33
2018-10-03T23:22:46.647Z,5.50
2018-10-03T23:25:14.823Z,6.03
2018-10-03T23:27:43.028Z,5.93
2018-10-03T23:30:11.248Z,5.60
2018-10-03T23:32:39.468Z,5.87
2018-10-03T23:35:07.671Z,6.40
2018-10-03T23:37:35.891Z,7.37
2018-10-03T23:40:04.100Z,7.30
2018-10-03T23:42:32.286Z,7.40
2018-10-03T23:45:00.474Z,7.20
2018-10-03T23:47:28.672Z,7.07
2018-10-03T23:49:56.847Z,5.47
2018-10-03T23:52:25.044Z,6.10
2018-10-03T23:54:53.238Z,6.70
2018-10-03T23:57:21.445Z,10.23
2018-10-03T23:59:49.613Z,7.83
